• Join FlightAware (Why Join?)
  • Login
  • US Flag 
Rudolph Flight #1: Arrived! 
06:35AM EST


 

Airport Tracker/Info


-or-


 

Live Flight TrackerFlight Track Log ✈ AWE3921 ✈ 09-Apr-2013 ✈ KDCA - KCAE

Flight Track Log - Related Links

Times and Time Zones

All times are in EDT time to prevent confusion due to time zone crossing. See the AWE3921 flight status page for this flight to view local times or setup timezone preferences in your user account.

Time Position Orientation Groundspeed Altitude Reporting Facility
EDT Latitude Longitude Course Direction KTS MPH feet Rate Location/Type
02:14PM 38.6247 -77.2412 215° Southwest  Level Estimated
02:15PM 38.5489 -77.3088 215° Southwest  Level Estimated
02:16PM 38.4730 -77.3762 215° Southwest  Level Estimated
02:17PM 38.3971 -77.4435 215° Southwest  Level Estimated
02:18PM 38.3212 -77.5106 215° Southwest  Level Estimated
02:19PM 38.2452 -77.5776 215° Southwest  Level Estimated
02:20PM 38.1692 -77.6444 215° Southwest  Level Estimated
02:21PM 38.0932 -77.7111 215° Southwest  Level Estimated
02:22PM 38.0171 -77.7777 215° Southwest  Level Estimated
02:23PM 37.9410 -77.8441 215° Southwest  Level Estimated
02:24PM 37.8648 -77.9104 215° Southwest  Level Estimated
02:25PM 37.7886 -77.9766 214° Southwest  Level Estimated
02:26PM 37.7124 -78.0426 214° Southwest  Level Estimated
02:27PM 37.6361 -78.1085 214° Southwest  Level Estimated
02:28PM 37.5598 -78.1742 214° Southwest  Level Estimated
02:29PM 37.4835 -78.2399 214° Southwest  Level Estimated
02:30PM 37.4071 -78.3053 214° Southwest  Level Estimated
02:31PM 37.3307 -78.3707 214° Southwest  Level Estimated
02:32PM 37.2542 -78.4359 214° Southwest  Level Estimated
02:33PM 37.1777 -78.5010 214° Southwest  Level Estimated
02:34PM 37.1012 -78.5659 214° Southwest  Level Estimated
02:35PM 37.0246 -78.6308 214° Southwest  Level Estimated
02:36PM 36.9481 -78.6954 214° Southwest  Level Estimated
02:37PM 36.8714 -78.7600 214° Southwest  Level Estimated
02:38PM 36.7948 -78.8244 214° Southwest  Level Estimated
02:39PM 36.7181 -78.8887 214° Southwest  Level Estimated
02:40PM 36.6413 -78.9529 214° Southwest  Level Estimated
02:41PM 36.5646 -79.0170 214° Southwest  Level Estimated
02:42PM 36.4878 -79.0809 214° Southwest  Level Estimated
02:43PM 36.4109 -79.1447 214° Southwest  Level Estimated
02:44PM 36.3341 -79.2083 214° Southwest  Level Estimated
02:45PM 36.2572 -79.2719 214° Southwest  Level Estimated
02:46PM 36.1802 -79.3353 214° Southwest  Level Estimated
02:47PM 36.1032 -79.3986 214° Southwest  Level Estimated
02:48PM 36.0262 -79.4618 214° Southwest  Level Estimated
02:49PM 35.9492 -79.5248 214° Southwest  Level Estimated
02:50PM 35.8721 -79.5877 213° Southwest  Level Estimated
02:51PM 35.7950 -79.6505 213° Southwest  Level Estimated
02:52PM 35.7179 -79.7132 213° Southwest  Level Estimated
02:53PM 35.6407 -79.7758 213° Southwest  Level Estimated
02:54PM 35.5635 -79.8382 213° Southwest  Level Estimated
02:55PM 35.4863 -79.9005 213° Southwest  Level Estimated
02:56PM 35.4090 -79.9627 213° Southwest  Level Estimated
02:57PM 35.3318 -80.0248 213° Southwest  Level Estimated
02:58PM 35.2544 -80.0867 213° Southwest  Level Estimated
02:59PM 35.1771 -80.1486 213° Southwest  Level Estimated
03:00PM 35.0997 -80.2103 213° Southwest  Level Estimated
03:01PM 35.0223 -80.2719 213° Southwest  Level Estimated
03:02PM 34.9448 -80.3334 213° Southwest  Level Estimated
03:03PM 34.8673 -80.3948 213° Southwest  Level Estimated
03:04PM 34.7898 -80.4560 213° Southwest  Level Estimated
03:05PM 34.7123 -80.5172 213° Southwest  Level Estimated
03:06PM 34.6347 -80.5782 213° Southwest  Level Estimated
03:07PM 34.5571 -80.6391 213° Southwest  Level Estimated
03:08PM 34.4795 -80.6999 213° Southwest  Level Estimated
03:09PM 34.3993 -80.7625 213° Southwest  Level Estimated
03:10PM 34.3191 -80.8251 213° Southwest  Level Estimated
03:11PM 34.2389 -80.8875 213° Southwest  Level Estimated
03:12PM 34.1586 -80.9497 213° Southwest  Level Estimated
03:13PM 34.0783 -81.0119 213° Southwest  Level Estimated
03:14PM 33.9980 -81.0739 213° Southwest  Level Estimated
03:15PM 33.9388 -81.1195 213° Southwest  Level Estimated
03:16PM 33.9388 -81.1195 29° Northeast  Level Estimated
03:17PM 33.9388 -81.1195 29° Northeast  Level Estimated
03:18PM 33.9388 -81.1195 29° Northeast  Level Estimated